Time;durP1;ratioP1;P1;durP2;ratioP2;P2;SDS_P1;SDS_P2;PMS_P1;PMS_P2;Temp;Humidity;BMP_temperature;BMP_pressure;BME280_temperature;BME280_humidity;BME280_pressure;Samples;Min_cycle;Max_cycle;Signal;HPM_P1;HPM_P2
2021/06/13 00:01:24;;;;;;;16.85;9.98;;;;;;;16.53;64.05;98465.72;5092299;28;20036;-77
2021/06/13 00:03:50;;;;;;;20.63;10.90;;;;;;;16.55;63.97;98463.41;5092882;28;20036;-78
2021/06/13 00:06:16;;;;;;;20.40;11.90;;;;;;;16.59;63.79;98460.81;5091914;28;20035;-77
2021/06/13 00:08:41;;;;;;;14.85;9.68;;;;;;;16.61;63.72;98458.50;5092487;28;20036;-76
2021/06/13 00:11:07;;;;;;;13.93;8.60;;;;;;;16.64;63.71;98458.63;5092240;28;20020;-77
2021/06/13 00:13:32;;;;;;;17.40;10.52;;;;;;;16.66;63.93;98453.56;5092568;28;20066;-77
2021/06/13 00:15:58;;;;;;;14.85;9.07;;;;;;;16.69;63.32;98456.81;5092155;28;20028;-77
2021/06/13 00:18:24;;;;;;;15.80;8.65;;;;;;;16.70;63.25;98458.44;5091909;28;20097;-78
2021/06/13 00:20:50;;;;;;;16.05;8.15;;;;;;;16.65;63.35;98470.53;5092669;28;20024;-77
2021/06/13 00:23:16;;;;;;;13.43;8.45;;;;;;;16.53;62.86;98468.47;5092214;28;20028;-77
2021/06/13 00:25:43;;;;;;;17.02;8.88;;;;;;;16.43;62.79;98466.91;5092362;28;20135;-76
2021/06/13 00:28:09;;;;;;;16.08;9.63;;;;;;;16.38;63.07;98469.88;5089734;28;20109;-77
2021/06/13 00:30:35;;;;;;;12.38;7.38;;;;;;;16.38;63.16;98464.34;5074051;28;20043;-75
2021/06/13 00:33:00;;;;;;;13.90;8.25;;;;;;;16.38;62.87;98478.19;5092480;28;20043;-76
2021/06/13 00:35:27;;;;;;;15.77;8.00;;;;;;;16.41;62.67;98473.94;5091832;28;20103;-75
2021/06/13 00:37:52;;;;;;;15.13;9.20;;;;;;;16.43;63.21;98472.44;5092138;28;20032;-76
2021/06/13 00:40:21;;;;;;;14.60;7.93;;;;;;;16.44;63.12;98481.59;5091931;28;20050;-76
2021/06/13 00:42:47;;;;;;;9.38;5.72;;;;;;;16.44;62.72;98487.91;5091482;28;20073;-75
2021/06/13 00:45:13;;;;;;;13.02;6.15;;;;;;;16.35;62.76;98479.69;5091371;28;20036;-75
2021/06/13 00:47:40;;;;;;;11.00;5.72;;;;;;;16.32;62.38;98480.34;5057358;28;20020;-76
2021/06/13 00:50:12;;;;;;;11.05;6.05;;;;;;;16.19;62.34;98481.38;5091684;28;20537;-76
2021/06/13 00:52:38;;;;;;;9.70;5.88;;;;;;;16.09;61.97;98487.31;5072935;28;20020;-74
2021/06/13 00:55:04;;;;;;;12.10;6.97;;;;;;;16.04;62.37;98480.81;5091495;28;20030;-75
2021/06/13 00:57:29;;;;;;;11.45;6.88;;;;;;;15.99;62.30;98488.47;5088387;28;20028;-76
2021/06/13 00:59:54;;;;;;;11.15;6.22;;;;;;;15.89;62.02;98489.66;5091561;28;20068;-77
2021/06/13 01:02:20;;;;;;;13.55;6.78;;;;;;;15.82;62.18;98497.59;5091739;28;20028;-75
2021/06/13 01:04:45;;;;;;;13.65;7.63;;;;;;;15.73;61.88;98492.91;5091853;28;20039;-76
2021/06/13 01:07:35;;;;;;;12.65;6.30;;;;;;;15.69;62.36;98503.00;5090684;28;20103;-76
2021/06/13 01:10:22;;;;;;;14.40;7.50;;;;;;;15.66;62.31;98498.16;5106187;28;20032;-75
2021/06/13 01:12:55;;;;;;;12.88;6.15;;;;;;;15.63;62.22;98504.34;5072912;28;20028;-75
2021/06/13 01:15:26;;;;;;;15.70;7.63;;;;;;;15.62;62.57;98503.53;5090434;28;20032;-75
2021/06/13 01:17:54;;;;;;;12.10;7.90;;;;;;;15.57;62.09;98506.44;5088961;28;20464;-76
2021/06/13 01:20:33;;;;;;;15.10;7.43;;;;;;;15.56;62.08;98504.03;5090910;28;20123;-76
2021/06/13 01:23:23;;;;;;;12.40;7.40;;;;;;;15.57;62.66;98502.88;5090688;28;20032;-75
2021/06/13 01:26:04;;;;;;;14.63;7.78;;;;;;;15.56;62.55;98515.09;5089983;28;20392;-77
2021/06/13 01:29:03;;;;;;;13.30;6.55;;;;;;;15.52;62.58;98506.63;5089484;28;20016;-77
2021/06/13 01:31:35;;;;;;;15.50;7.18;;;;;;;15.48;62.63;98516.72;5085195;28;20032;-78
2021/06/13 01:34:05;;;;;;;13.60;5.65;;;;;;;15.40;62.59;98507.28;5052947;28;20032;-76
2021/06/13 01:36:32;;;;;;;;;;;;;;;15.31;62.08;98510.06;5064817;28;20039;-76
2021/06/13 01:38:58;;;;;;;13.52;7.50;;;;;;;15.25;62.56;98510.59;5088867;28;20032;-77
2021/06/13 01:41:27;;;;;;;17.20;7.85;;;;;;;15.18;62.49;98514.66;5088740;28;20472;-77
2021/06/13 01:43:55;;;;;;;14.85;7.95;;;;;;;15.12;63.04;98506.81;5086011;28;20086;-77
2021/06/13 01:46:22;;;;;;;13.70;6.15;;;;;;;15.07;62.87;98510.56;5089602;28;20085;-78
2021/06/13 01:48:47;;;;;;;13.75;6.75;;;;;;;15.05;62.61;98506.53;5090404;28;20027;-78
2021/06/13 01:51:13;;;;;;;15.80;8.45;;;;;;;15.03;62.87;98515.94;5090194;28;20032;-77
2021/06/13 01:53:41;;;;;;;9.93;6.05;;;;;;;14.99;63.04;98514.97;5090511;28;20031;-78
2021/06/13 01:56:12;;;;;;;12.32;6.00;;;;;;;14.99;63.13;98509.44;5089795;28;20400;-76
2021/06/13 01:58:40;;;;;;;10.80;6.10;;;;;;;14.98;63.57;98520.81;5090320;28;20095;-79
2021/06/13 02:01:08;;;;;;;12.27;6.82;;;;;;;14.94;63.30;98522.56;5090384;28;20032;-77
2021/06/13 02:03:36;;;;;;;14.38;7.10;;;;;;;14.94;63.42;98523.41;5090426;28;20028;-77
2021/06/13 02:06:03;;;;;;;12.57;6.97;;;;;;;14.98;63.52;98523.56;5089230;28;20076;-77
2021/06/13 02:08:34;;;;;;;15.90;8.07;;;;;;;14.97;63.56;98522.75;5090045;28;20015;-77
2021/06/13 02:11:01;;;;;;;13.00;6.22;;;;;;;14.97;63.77;98521.94;5089504;28;20032;-78
2021/06/13 02:13:30;;;;;;;13.50;7.20;;;;;;;14.96;63.83;98526.66;5089434;28;20024;-78
2021/06/13 02:15:56;;;;;;;10.52;6.35;;;;;;;14.97;63.84;98527.47;5090208;28;20027;-76
2021/06/13 02:18:24;;;;;;;14.75;8.70;;;;;;;14.91;63.90;98526.81;5090250;28;20030;-78
2021/06/13 02:20:51;;;;;;;9.98;6.05;;;;;;;14.89;64.20;98521.59;5089831;28;20016;-78
2021/06/13 02:23:16;;;;;;;12.05;6.60;;;;;;;14.89;63.83;98524.38;5089775;28;20796;-77
2021/06/13 02:25:42;;;;;;;10.65;5.85;;;;;;;14.92;63.83;98528.44;5089756;28;20040;-77
2021/06/13 02:28:07;;;;;;;14.10;7.07;;;;;;;14.86;63.67;98527.78;5089769;28;20024;-77
2021/06/13 02:30:37;;;;;;;15.05;7.90;;;;;;;14.85;63.98;98537.22;5089821;28;20380;-77
2021/06/13 02:33:05;;;;;;;12.68;7.82;;;;;;;14.82;63.98;98531.50;5091189;28;20085;-77
2021/06/13 02:35:31;;;;;;;9.27;6.40;;;;;;;14.79;63.97;98532.16;5086999;28;20020;-77
2021/06/13 02:37:58;;;;;;;12.65;7.05;;;;;;;14.79;64.16;98534.91;5089518;28;20111;-78
2021/06/13 02:40:23;;;;;;;12.85;7.40;;;;;;;14.77;63.91;98540.78;5089665;28;20099;-76
2021/06/13 02:42:49;;;;;;;16.08;8.27;;;;;;;14.78;64.21;98539.63;5089742;28;20012;-77
2021/06/13 02:45:20;;;;;;;14.52;7.97;;;;;;;14.77;64.47;98545.47;5089202;28;20039;-77
2021/06/13 02:47:46;;;;;;;15.50;8.52;;;;;;;14.77;64.26;98551.00;5089932;28;20047;-76
2021/06/13 02:50:12;;;;;;;14.30;7.63;;;;;;;14.77;64.30;98548.22;5090209;28;20384;-77
2021/06/13 02:52:50;;;;;;;14.85;7.63;;;;;;;14.74;64.01;98546.94;5090125;28;20756;-76
2021/06/13 02:55:20;;;;;;;16.00;9.38;;;;;;;14.74;64.15;98542.22;5087487;28;20476;-77
2021/06/13 02:57:54;;;;;;;;;;;;;;;14.77;64.22;98557.34;5089522;28;20389;-75
2021/06/13 03:00:22;;;;;;;17.60;7.55;;;;;;;14.74;64.19;98558.78;5089372;28;20350;-76
2021/06/13 03:02:51;;;;;;;20.90;8.98;;;;;;;14.75;64.31;98565.13;5089402;28;20035;-77
2021/06/13 03:05:21;;;;;;;18.60;10.33;;;;;;;14.74;64.76;98564.28;5089272;28;20032;-75
2021/06/13 03:07:47;;;;;;;18.02;9.10;;;;;;;14.75;64.61;98573.41;5090215;28;20036;-76
2021/06/13 03:10:13;;;;;;;14.23;7.05;;;;;;;14.74;64.40;98569.03;5089753;28;20050;-79
2021/06/13 03:12:40;;;;;;;13.65;7.22;;;;;;;14.68;64.42;98571.06;5089666;28;20088;-77
2021/06/13 03:15:06;;;;;;;15.65;7.93;;;;;;;14.65;64.75;98573.66;5089546;28;20028;-76
2021/06/13 03:17:34;;;;;;;17.73;7.45;;;;;;;14.61;64.45;98578.19;5086808;28;20020;-76
2021/06/13 03:20:00;;;;;;;14.48;7.63;;;;;;;14.61;64.56;98578.19;5089577;28;20028;-77
2021/06/13 03:22:25;;;;;;;12.35;8.48;;;;;;;14.59;64.51;98582.09;5088774;28;20495;-78
2021/06/13 03:24:52;;;;;;;16.67;7.05;;;;;;;14.63;64.70;98589.72;5087837;28;20483;-77
2021/06/13 03:27:19;;;;;;;18.58;7.05;;;;;;;14.67;64.74;98594.28;5089259;28;20161;-77
2021/06/13 03:29:46;;;;;;;12.18;7.43;;;;;;;14.69;64.60;98594.00;5088462;28;20120;-76
2021/06/13 03:32:13;;;;;;;16.67;8.45;;;;;;;14.73;64.79;98598.56;5088763;28;20029;-77
2021/06/13 03:34:40;;;;;;;15.68;8.23;;;;;;;14.79;64.71;98596.47;5089389;28;20475;-77
2021/06/13 03:37:09;;;;;;;10.02;6.15;;;;;;;14.79;64.84;98602.00;5088770;28;20039;-77
2021/06/13 03:39:35;;;;;;;15.38;7.38;;;;;;;14.81;64.82;98601.66;5087097;28;20032;-76
2021/06/13 03:42:01;;;;;;;13.52;7.82;;;;;;;14.85;65.00;98605.41;5089265;28;20057;-77
2021/06/13 03:44:28;;;;;;;19.15;10.15;;;;;;;14.87;64.65;98600.38;5089114;28;20107;-77
2021/06/13 03:46:55;;;;;;;17.60;8.90;;;;;;;14.95;64.74;98607.06;5089353;28;20032;-77
2021/06/13 03:49:21;;;;;;;17.23;9.90;;;;;;;15.01;64.74;98611.28;5088949;28;20024;-77
2021/06/13 03:51:47;;;;;;;17.05;8.98;;;;;;;15.03;64.91;98612.63;5088297;28;20040;-77
2021/06/13 03:54:12;;;;;;;18.38;9.52;;;;;;;15.03;64.72;98617.31;5070516;28;20016;-77
2021/06/13 03:56:45;;;;;;;15.07;8.05;;;;;;;15.04;64.55;98616.19;5092786;28;20081;-78
2021/06/13 03:59:12;;;;;;;14.48;7.97;;;;;;;15.09;64.95;98623.50;5092571;28;20391;-77
2021/06/13 04:01:41;;;;;;;19.27;7.80;;;;;;;15.14;65.05;98628.84;5074067;28;20047;-78
2021/06/13 04:04:09;;;;;;;16.73;8.50;;;;;;;15.16;64.57;98627.41;5093760;28;20028;-78
2021/06/13 04:06:35;;;;;;;17.73;9.25;;;;;;;15.19;64.78;98639.75;5093224;28;20040;-78
2021/06/13 04:09:03;;;;;;;8.07;5.20;;;;;;;15.23;64.84;98642.72;5089665;28;20024;-78
2021/06/13 04:11:31;;;;;;;19.25;8.00;;;;;;;15.18;64.71;98630.69;5093739;28;20016;-78
2021/06/13 04:13:57;;;;;;;17.38;9.30;;;;;;;15.16;64.26;98641.22;5093795;28;20115;-77
2021/06/13 04:16:23;;;;;;;14.75;7.32;;;;;;;15.10;64.71;98641.69;5093848;28;20085;-78
2021/06/13 04:18:49;;;;;;;12.90;7.38;;;;;;;15.02;64.60;98643.31;5092961;28;20024;-78
2021/06/13 04:21:15;;;;;;;14.45;7.72;;;;;;;15.00;64.45;98648.34;5093853;28;20032;-78
2021/06/13 04:23:43;;;;;;;16.80;7.60;;;;;;;14.96;64.61;98655.63;5093540;28;20515;-77
2021/06/13 04:26:12;;;;;;;18.10;8.32;;;;;;;14.89;64.57;98647.81;5092898;28;20055;-78
2021/06/13 04:28:38;;;;;;;22.13;9.73;;;;;;;14.91;64.79;98653.84;5095194;28;20385;-78
2021/06/13 04:31:03;;;;;;;18.70;8.80;;;;;;;14.92;65.12;98657.41;5093496;28;20054;-77
2021/06/13 04:33:30;;;;;;;14.93;7.82;;;;;;;14.90;64.63;98654.97;5093729;28;20074;-77
2021/06/13 04:35:55;;;;;;;17.67;7.80;;;;;;;14.88;64.75;98648.97;5094406;28;20078;-78
2021/06/13 04:38:20;;;;;;;16.35;8.60;;;;;;;14.87;64.49;98652.84;5094025;28;20480;-77
2021/06/13 04:40:46;;;;;;;14.48;7.85;;;;;;;14.85;64.53;98642.13;5093469;28;20099;-76
2021/06/13 04:43:11;;;;;;;15.07;7.65;;;;;;;14.87;64.80;98647.31;5093352;28;20046;-77
2021/06/13 04:45:36;;;;;;;14.10;7.68;;;;;;;14.89;64.82;98648.63;5093137;28;20035;-77
2021/06/13 04:48:06;;;;;;;9.55;5.45;;;;;;;14.87;64.78;98658.38;5092395;28;20063;-76
2021/06/13 04:50:33;;;;;;;17.65;6.85;;;;;;;14.78;64.92;98655.59;5092921;28;20040;-77
2021/06/13 04:53:02;;;;;;;17.50;8.15;;;;;;;14.76;64.46;98659.78;5093338;28;20103;-77
2021/06/13 04:55:38;;;;;;;12.55;5.18;;;;;;;14.75;64.62;98664.50;5093031;28;20046;-77
2021/06/13 04:58:11;;;;;;;10.77;5.80;;;;;;;14.73;64.84;98666.78;5074230;28;20484;-76
2021/06/13 05:00:36;;;;;;;22.00;7.63;;;;;;;14.72;64.65;98677.00;5093098;28;20099;-78
2021/06/13 05:03:05;;;;;;;18.15;6.85;;;;;;;14.73;64.92;98675.06;5093017;28;20436;-76
2021/06/13 05:05:31;;;;;;;15.43;7.30;;;;;;;14.70;64.56;98681.22;5091896;28;20020;-76
2021/06/13 05:07:56;;;;;;;14.95;6.45;;;;;;;14.70;64.43;98686.72;5093081;28;20435;-76
2021/06/13 05:10:22;;;;;;;12.98;7.45;;;;;;;14.71;64.75;98686.41;5092859;28;20036;-76
2021/06/13 05:12:52;;;;;;;14.18;6.32;;;;;;;14.72;64.71;98688.03;5092188;28;20463;-77
2021/06/13 05:15:22;;;;;;;11.65;5.13;;;;;;;14.69;64.33;98685.91;5092101;28;20107;-76
2021/06/13 05:17:48;;;;;;;8.07;4.45;;;;;;;14.67;64.76;98690.09;5089182;28;20380;-77
2021/06/13 05:20:14;;;;;;;19.15;6.25;;;;;;;14.66;64.51;98699.50;5092812;28;20105;-75
2021/06/13 05:22:54;;;;;;;11.75;5.35;;;;;;;14.66;64.88;98699.50;5092732;28;20020;-77
2021/06/13 05:25:21;;;;;;;10.43;4.47;;;;;;;14.61;64.44;98708.75;5092000;28;20024;-76
2021/06/13 05:27:46;;;;;;;15.25;7.03;;;;;;;14.61;64.88;98702.41;5093684;28;20016;-75
2021/06/13 05:30:12;;;;;;;10.88;5.75;;;;;;;14.63;64.92;98711.19;5092849;28;20012;-76
2021/06/13 05:32:38;;;;;;;21.63;6.93;;;;;;;14.60;64.56;98701.59;5092659;28;20032;-76
2021/06/13 05:35:04;;;;;;;12.45;5.47;;;;;;;14.64;64.35;98712.81;5092304;28;20376;-75
2021/06/13 05:37:29;;;;;;;11.82;5.88;;;;;;;14.62;64.83;98718.66;5074244;28;20030;-75
2021/06/13 05:39:54;;;;;;;12.02;6.18;;;;;;;14.59;64.31;98728.38;5074153;28;20383;-75
2021/06/13 05:42:20;;;;;;;10.10;6.40;;;;;;;14.63;64.54;98725.81;5092520;28;20022;-77
2021/06/13 05:44:45;;;;;;;13.88;6.47;;;;;;;14.62;64.49;98728.88;5092260;28;20085;-77
2021/06/13 05:47:10;;;;;;;11.50;5.18;;;;;;;14.61;64.24;98733.59;5092376;28;20038;-78
2021/06/13 05:49:36;;;;;;;15.77;5.97;;;;;;;14.64;64.35;98726.63;5092163;28;20024;-76
2021/06/13 05:52:01;;;;;;;17.40;6.32;;;;;;;14.69;64.42;98726.50;5092338;28;20078;-77
2021/06/13 05:54:26;;;;;;;13.15;5.22;;;;;;;14.74;64.07;98729.94;5092199;28;20393;-77
2021/06/13 05:56:52;;;;;;;13.57;6.55;;;;;;;14.77;64.31;98727.69;5092136;28;20793;-76
2021/06/13 05:59:17;;;;;;;14.85;6.30;;;;;;;14.82;64.22;98741.34;5091980;28;20452;-76
2021/06/13 06:01:43;;;;;;;9.23;4.78;;;;;;;14.79;63.72;98740.06;5074008;28;20028;-77
2021/06/13 06:04:08;;;;;;;10.80;5.65;;;;;;;14.76;63.98;98743.44;5091981;28;20028;-76
2021/06/13 06:06:34;;;;;;;12.77;5.53;;;;;;;14.81;63.72;98748.00;5090983;28;20480;-76
2021/06/13 06:08:59;;;;;;;13.30;5.10;;;;;;;14.84;63.94;98739.91;5091531;28;20464;-76
2021/06/13 06:11:25;;;;;;;13.32;4.78;;;;;;;14.86;63.99;98745.94;5091854;28;20392;-75
2021/06/13 06:13:53;;;;;;;17.27;6.63;;;;;;;14.93;63.77;98744.63;5091695;28;20043;-75
2021/06/13 06:16:23;;;;;;;19.58;5.57;;;;;;;14.97;63.85;98749.22;5091329;28;20054;-75
2021/06/13 06:18:48;;;;;;;11.35;5.45;;;;;;;14.97;63.34;98749.22;5091969;28;20016;-76
2021/06/13 06:21:14;;;;;;;14.25;5.60;;;;;;;14.97;63.52;98756.69;5091506;28;20046;-76
2021/06/13 06:23:39;;;;;;;13.27;5.88;;;;;;;14.99;63.26;98758.00;5091414;28;20758;-75
2021/06/13 06:26:04;;;;;;;6.68;3.83;;;;;;;15.03;63.17;98755.41;5091352;28;20031;-76
2021/06/13 06:28:30;;;;;;;15.50;5.40;;;;;;;15.06;63.16;98765.03;5092085;28;20024;-77
2021/06/13 06:30:55;;;;;;;12.45;7.38;;;;;;;15.12;63.17;98753.50;5072454;28;20039;-76
2021/06/13 06:33:21;;;;;;;13.13;5.90;;;;;;;15.14;62.94;98762.28;5091362;28;20096;-78
2021/06/13 06:35:46;;;;;;;14.65;5.65;;;;;;;15.17;62.95;98760.81;5091420;28;20024;-77
2021/06/13 06:38:11;;;;;;;9.13;4.38;;;;;;;15.22;62.79;98766.22;5091231;28;20024;-77
2021/06/13 06:40:37;;;;;;;14.05;5.85;;;;;;;15.24;62.60;98771.44;5072044;28;20020;-76
2021/06/13 06:43:02;;;;;;;14.77;4.85;;;;;;;15.31;62.58;98777.28;5091262;28;20462;-77
2021/06/13 06:45:27;;;;;;;10.15;5.45;;;;;;;15.39;62.47;98778.47;5090178;28;20032;-78
2021/06/13 06:47:53;;;;;;;13.40;6.72;;;;;;;15.42;62.08;98783.34;5091155;28;20738;-78
2021/06/13 06:50:18;;;;;;;9.95;5.72;;;;;;;15.45;61.96;98780.75;5091025;28;20024;-76
2021/06/13 06:52:44;;;;;;;15.00;6.38;;;;;;;15.47;62.15;98783.22;5091293;28;20894;-74
2021/06/13 06:55:10;;;;;;;17.02;6.10;;;;;;;15.45;61.59;98780.75;5090597;28;20020;-74
2021/06/13 06:57:38;;;;;;;9.75;4.80;;;;;;;15.47;61.45;98781.25;5090427;28;20035;-78
2021/06/13 07:00:06;;;;;;;11.15;4.45;;;;;;;15.45;61.18;98783.50;5086536;28;20057;-73
2021/06/13 07:02:31;;;;;;;11.40;3.92;;;;;;;15.45;61.06;98786.28;5091121;28;20073;-73
2021/06/13 07:04:57;;;;;;;11.70;4.47;;;;;;;15.44;60.16;98787.41;5090749;28;20108;-72
2021/06/13 07:07:22;;;;;;;5.88;2.55;;;;;;;15.38;59.98;98785.94;5072820;28;20388;-73
2021/06/13 07:09:48;;;;;;;11.18;4.15;;;;;;;15.35;60.16;98789.31;5090844;28;20358;-74
2021/06/13 07:12:13;;;;;;;10.25;3.25;;;;;;;15.34;59.78;98793.22;5090733;28;20030;-72
2021/06/13 07:14:39;;;;;;;10.05;3.90;;;;;;;15.32;59.75;98801.03;5090997;28;20016;-73
2021/06/13 07:17:04;;;;;;;9.20;3.55;;;;;;;15.32;59.58;98806.53;5072544;28;20115;-72
2021/06/13 07:19:29;;;;;;;7.30;3.08;;;;;;;15.30;59.36;98808.81;5090952;28;20051;-73
2021/06/13 07:21:55;;;;;;;12.07;4.80;;;;;;;15.30;59.07;98811.56;5090936;28;20024;-73
2021/06/13 07:24:20;;;;;;;14.50;4.28;;;;;;;15.28;59.84;98809.16;5090979;28;20059;-74
2021/06/13 07:26:45;;;;;;;7.93;3.40;;;;;;;15.28;59.55;98813.88;5090668;28;20035;-75
2021/06/13 07:29:11;;;;;;;7.50;3.40;;;;;;;15.34;59.60;98807.03;5093449;28;20027;-74
2021/06/13 07:31:36;;;;;;;7.82;3.70;;;;;;;15.44;60.11;98805.97;5094595;28;20482;-73
2021/06/13 07:34:01;;;;;;;19.48;6.35;;;;;;;15.47;59.48;98817.19;5094680;28;20085;-74
2021/06/13 07:36:27;;;;;;;12.30;5.00;;;;;;;15.45;59.30;98815.88;5094509;28;20095;-74
2021/06/13 07:38:52;;;;;;;9.48;4.65;;;;;;;15.41;59.15;98825.94;5076263;28;20041;-73
2021/06/13 07:41:17;;;;;;;8.07;3.70;;;;;;;15.36;59.18;98826.09;5076102;28;20064;-76
2021/06/13 07:43:43;;;;;;;11.77;3.65;;;;;;;15.34;58.47;98829.16;5094492;28;20019;-73
2021/06/13 07:46:08;;;;;;;10.10;3.63;;;;;;;15.36;58.83;98837.94;5094382;28;20024;-74
2021/06/13 07:48:33;;;;;;;14.68;3.90;;;;;;;15.37;58.82;98834.03;5094251;28;20456;-74
2021/06/13 07:50:59;;;;;;;12.45;4.13;;;;;;;15.42;58.98;98839.44;5094019;28;20036;-74
2021/06/13 07:53:24;;;;;;;9.65;3.58;;;;;;;15.46;58.09;98836.84;5094186;28;20127;-74
2021/06/13 07:55:50;;;;;;;8.82;4.13;;;;;;;15.53;58.66;98842.72;5093873;28;20078;-73
2021/06/13 07:58:15;;;;;;;8.43;3.83;;;;;;;15.61;58.63;98847.47;5093946;28;20447;-74
2021/06/13 08:00:41;;;;;;;9.70;3.70;;;;;;;15.68;58.49;98843.41;5093862;28;20016;-73
2021/06/13 08:03:06;;;;;;;13.40;7.35;;;;;;;15.74;58.02;98842.94;5094030;28;20020;-74
2021/06/13 08:05:34;;;;;;;8.43;3.67;;;;;;;15.81;58.08;98848.03;5093796;28;20365;-74
2021/06/13 08:08:05;;;;;;;12.07;3.20;;;;;;;15.80;57.73;98848.31;5076102;28;20028;-74
2021/06/13 08:10:30;;;;;;;8.52;4.15;;;;;;;15.72;57.32;98849.94;5075708;28;20369;-74
2021/06/13 08:12:57;;;;;;;13.57;3.60;;;;;;;15.73;57.07;98848.81;5093879;28;20028;-74
2021/06/13 08:15:23;;;;;;;8.18;3.58;;;;;;;15.74;56.33;98851.22;5093828;28;20016;-74
2021/06/13 08:17:49;;;;;;;11.55;3.20;;;;;;;15.74;57.04;98847.66;5093722;28;20065;-74
2021/06/13 08:20:15;;;;;;;12.27;3.40;;;;;;;15.73;56.69;98851.56;5093764;28;20016;-74
2021/06/13 08:22:42;;;;;;;12.50;3.20;;;;;;;15.72;56.63;98845.22;5093691;28;20511;-74
2021/06/13 08:25:08;;;;;;;8.68;2.70;;;;;;;15.77;56.28;98853.34;5093441;28;20024;-74
2021/06/13 08:27:33;;;;;;;12.38;2.90;;;;;;;15.84;56.05;98850.16;5093184;28;20023;-74
2021/06/13 08:29:59;;;;;;;9.65;3.45;;;;;;;15.86;56.12;98850.66;5093471;28;20423;-74
2021/06/13 08:32:26;;;;;;;10.35;3.28;;;;;;;15.85;56.05;98851.78;5075063;28;20020;-74
2021/06/13 08:34:51;;;;;;;11.05;3.53;;;;;;;15.84;55.48;98860.38;5093008;28;20016;-74
2021/06/13 08:37:17;;;;;;;9.27;3.58;;;;;;;15.82;54.97;98868.19;5093365;28;20024;-73
2021/06/13 08:39:42;;;;;;;16.80;3.42;;;;;;;15.80;55.27;98862.97;5092964;28;20024;-76
2021/06/13 08:42:08;;;;;;;7.88;3.40;;;;;;;15.76;54.57;98862.78;5092755;28;20101;-75
2021/06/13 08:44:34;;;;;;;9.82;3.42;;;;;;;15.74;53.94;98869.78;5093218;28;20372;-74
2021/06/13 08:47:01;;;;;;;13.68;3.55;;;;;;;15.70;53.74;98866.03;5092949;28;20035;-75
2021/06/13 08:49:26;;;;;;;13.32;4.60;;;;;;;15.68;54.12;98871.06;5092990;28;20024;-75
2021/06/13 08:51:52;;;;;;;13.38;3.47;;;;;;;15.64;54.16;98876.44;5092769;28;20051;-75
2021/06/13 08:54:19;;;;;;;11.07;3.90;;;;;;;15.65;54.05;98874.47;5093515;28;20180;-74
2021/06/13 08:56:44;;;;;;;11.63;4.07;;;;;;;15.69;54.17;98878.22;5094112;28;20481;-75
2021/06/13 08:59:11;;;;;;;7.82;3.38;;;;;;;15.72;54.27;98891.41;5094195;28;20028;-76
2021/06/13 09:01:36;;;;;;;6.68;3.03;;;;;;;15.74;54.17;98889.16;5075063;28;20458;-74
2021/06/13 09:04:02;;;;;;;11.85;4.90;;;;;;;15.75;53.34;98883.28;5095154;28;20023;-74
2021/06/13 09:06:28;;;;;;;10.77;5.00;;;;;;;15.76;53.95;98886.88;5093827;28;20562;-75
2021/06/13 09:08:54;;;;;;;10.00;5.18;;;;;;;15.82;53.72;98882.84;5095886;28;20028;-74
2021/06/13 09:11:29;;;;;;;13.25;4.60;;;;;;;15.86;53.64;98883.84;5093079;28;20383;-74
2021/06/13 09:14:10;;;;;;;12.18;4.28;;;;;;;15.90;53.65;98895.09;5073794;28;20511;-74
2021/06/13 09:16:39;;;;;;;12.15;4.18;;;;;;;15.93;54.02;98888.91;5085505;28;20087;-73
2021/06/13 09:19:04;;;;;;;10.63;4.05;;;;;;;15.92;53.13;98893.63;5098707;28;20058;-75
2021/06/13 09:21:32;;;;;;;22.90;6.45;;;;;;;15.89;51.99;98888.75;5094653;28;20464;-74
2021/06/13 09:23:58;;;;;;;10.05;4.78;;;;;;;15.84;52.17;98897.16;5093370;28;20453;-73
2021/06/13 09:26:26;;;;;;;14.48;4.68;;;;;;;15.87;52.75;98890.19;5093750;28;20074;-74
2021/06/13 09:28:54;;;;;;;12.55;4.88;;;;;;;15.92;53.37;98890.03;5093045;28;20024;-74
2021/06/13 09:31:19;;;;;;;17.90;5.85;;;;;;;15.99;53.16;98882.09;5093326;28;20051;-74
2021/06/13 09:33:46;;;;;;;9.90;3.90;;;;;;;16.08;53.46;98887.63;5093055;28;20055;-75
2021/06/13 09:36:17;;;;;;;10.07;4.93;;;;;;;16.14;52.41;98896.59;5092447;28;20028;-75
2021/06/13 09:38:46;;;;;;;11.95;4.40;;;;;;;16.12;52.96;98883.09;5089518;28;20460;-74
2021/06/13 09:41:18;;;;;;;9.65;3.78;;;;;;;16.18;52.96;98892.03;5074514;28;20068;-77
2021/06/13 09:43:52;;;;;;;15.55;4.38;;;;;;;16.23;50.80;98891.88;5092556;28;20023;-83
2021/06/13 09:46:21;;;;;;;12.07;3.90;;;;;;;16.19;50.72;98899.22;5091958;28;20047;-80
2021/06/13 09:48:51;;;;;;;14.30;4.22;;;;;;;16.07;50.37;98894.31;5091428;28;20024;-83
2021/06/13 09:51:22;;;;;;;10.13;3.97;;;;;;;15.96;50.76;98915.09;5090756;28;20044;-78
2021/06/13 09:53:57;;;;;;;12.68;3.92;;;;;;;15.80;49.99;98915.53;5091953;28;20100;-79
2021/06/13 09:56:25;;;;;;;11.88;3.40;;;;;;;15.62;50.00;98936.75;5092389;28;20391;-76
2021/06/13 09:58:52;;;;;;;12.02;4.13;;;;;;;15.45;50.43;98927.25;5091542;28;20035;-76
2021/06/13 10:01:18;;;;;;;18.85;4.40;;;;;;;15.31;50.74;98935.63;5091523;28;20028;-76
2021/06/13 10:03:47;;;;;;;16.17;4.38;;;;;;;15.24;50.81;98934.44;5091584;28;20117;-76
2021/06/13 10:06:13;;;;;;;10.83;3.70;;;;;;;15.26;51.11;98940.47;5091084;28;20032;-76
2021/06/13 10:08:41;;;;;;;14.20;4.82;;;;;;;15.31;51.20;98934.78;5091879;28;20042;-75
2021/06/13 10:11:07;;;;;;;13.98;3.53;;;;;;;15.32;51.01;98930.91;5090878;28;20028;-76
2021/06/13 10:13:40;;;;;;;9.45;2.95;;;;;;;15.40;51.46;98940.38;5091388;28;20031;-79
2021/06/13 10:16:06;;;;;;;16.42;5.75;;;;;;;15.45;51.91;98937.50;5091273;28;20024;-77
2021/06/13 10:18:32;;;;;;;10.32;3.50;;;;;;;15.54;51.67;98940.28;5090535;28;20020;-78
2021/06/13 10:21:11;;;;;;;11.70;4.28;;;;;;;15.56;51.40;98938.03;5064260;28;20020;-76
2021/06/13 10:23:40;;;;;;;11.90;4.30;;;;;;;15.60;51.30;98936.25;5063867;28;20016;-77
2021/06/13 10:26:07;;;;;;;9.33;4.10;;;;;;;15.63;51.17;98943.94;5058957;28;20039;-76
2021/06/13 10:28:33;;;;;;;10.98;3.80;;;;;;;15.70;51.30;98940.69;5064846;28;20127;-75
2021/06/13 10:30:58;;;;;;;8.32;4.07;;;;;;;15.75;51.09;98938.59;5071470;28;20111;-77
2021/06/13 10:33:25;;;;;;;13.20;3.75;;;;;;;15.81;50.94;98925.47;5091704;28;20031;-76
2021/06/13 10:35:51;;;;;;;7.80;3.60;;;;;;;15.91;50.79;98941.78;5090615;28;20346;-75
2021/06/13 10:38:16;;;;;;;14.98;4.78;;;;;;;15.98;50.83;98938.56;5091504;28;20073;-74
2021/06/13 10:40:41;;;;;;;14.73;6.50;;;;;;;16.04;50.68;98931.75;5091724;28;20039;-74
2021/06/13 10:43:07;;;;;;;9.63;4.13;;;;;;;16.09;50.43;98927.19;5094243;28;20788;-75
2021/06/13 10:45:33;;;;;;;7.07;3.47;;;;;;;16.20;50.50;98928.50;5110765;28;20498;-73
2021/06/13 10:48:06;;;;;;;10.45;3.22;;;;;;;16.24;49.26;98940.56;5111729;28;20042;-74
2021/06/13 10:50:34;;;;;;;10.85;4.30;;;;;;;16.27;49.03;98941.91;5093131;28;20047;-74
2021/06/13 10:53:02;;;;;;;12.75;4.30;;;;;;;16.27;49.15;98933.59;5091046;28;20028;-75
2021/06/13 10:55:48;;;;;;;8.32;3.90;;;;;;;16.33;49.13;98935.03;5090873;28;20032;-74
2021/06/13 10:58:50;;;;;;;10.25;3.38;;;;;;;16.37;49.46;98939.63;5089295;28;20024;-73
2021/06/13 11:01:27;;;;;;;8.35;3.33;;;;;;;16.47;49.03;98930.19;5090250;28;20107;-74
2021/06/13 11:04:06;;;;;;;14.88;4.35;;;;;;;16.55;48.80;98944.38;5090176;28;20594;-73
2021/06/13 11:06:37;;;;;;;10.27;3.50;;;;;;;16.61;48.69;98937.53;5093997;28;20479;-72
2021/06/13 11:09:05;;;;;;;13.02;4.38;;;;;;;16.65;48.80;98950.41;5093594;28;20024;-73
2021/06/13 11:11:34;;;;;;;10.50;3.63;;;;;;;16.68;48.79;98946.19;5093957;28;20053;-74
2021/06/13 11:14:23;;;;;;;12.25;3.50;;;;;;;16.63;48.52;98952.69;5097476;28;20106;-73
2021/06/13 11:16:48;;;;;;;12.27;4.30;;;;;;;16.61;47.59;98954.16;5093761;28;20024;-73
2021/06/13 11:19:34;;;;;;;11.98;3.20;;;;;;;16.57;48.01;98953.97;5093949;28;20032;-73
2021/06/13 11:22:18;;;;;;;9.10;3.30;;;;;;;16.59;48.19;98948.91;5092427;28;20476;-74
2021/06/13 11:24:51;;;;;;;9.38;3.05;;;;;;;16.61;47.88;98948.63;5075232;28;20059;-74
2021/06/13 11:27:17;;;;;;;10.23;3.58;;;;;;;16.61;47.72;98952.19;5092738;28;20062;-74
2021/06/13 11:29:54;;;;;;;13.60;4.28;;;;;;;16.66;47.61;98940.94;5092949;28;20020;-73